Time;durP1;ratioP1;P1;durP2;ratioP2;P2;SDS_P1;SDS_P2;PMS_P1;PMS_P2;Temp;Humidity;BMP_temperature;BMP_pressure;BME280_temperature;BME280_humidity;BME280_pressure;Samples;Min_cycle;Max_cycle;Signal;HPM_P1;HPM_P2
2021/12/21 00:01:52;;;;;;;15.73;7.73;;;;;;;;;;5028757;28;20017;-81
2021/12/21 00:04:18;;;;;;;12.97;6.80;;;;;;;;;;5028188;28;20461;-82
2021/12/21 00:06:44;;;;;;;15.20;7.53;;;;;;;;;;5034445;28;20073;-79
2021/12/21 00:09:09;;;;;;;13.93;6.93;;;;;;;;;;5033501;28;20068;-81
2021/12/21 00:11:35;;;;;;;17.13;7.13;;;;;;;;;;5037012;28;20420;-79
2021/12/21 00:14:16;;;;;;;17.13;7.30;;;;;;;;;;5040696;28;20034;-80
2021/12/21 00:17:02;;;;;;;15.27;7.83;;;;;;;;;;5042915;28;20017;-82
2021/12/21 00:22:10;;;;;;;15.70;7.70;;;;;;;;;;5043063;28;20483;-81
2021/12/21 00:24:45;;;;;;;19.70;8.53;;;;;;;;;;5043793;28;20030;-80
2021/12/21 00:27:10;;;;;;;17.03;7.40;;;;;;;;;;5042035;28;20057;-81
2021/12/21 00:29:35;;;;;;;13.10;6.47;;;;;;;;;;5045316;28;20041;-79
2021/12/21 00:32:01;;;;;;;14.70;7.07;;;;;;;;;;5039579;28;20025;-80
2021/12/21 00:34:26;;;;;;;13.23;7.07;;;;;;;;;;5041992;28;20025;-80
2021/12/21 00:36:52;;;;;;;16.80;6.70;;;;;;;;;;5029819;28;20475;-81
2021/12/21 00:39:17;;;;;;;16.13;7.77;;;;;;;;;;5030261;28;20021;-82
2021/12/21 00:41:42;;;;;;;15.23;6.80;;;;;;;;;;5028698;28;20092;-79
2021/12/21 00:44:07;;;;;;;16.87;7.23;;;;;;;;;;5030880;28;20041;-78
2021/12/21 00:46:33;;;;;;;14.20;7.43;;;;;;;;;;5026990;28;20134;-79
2021/12/21 00:49:11;;;;;;;19.30;7.23;;;;;;;;;;5029324;28;20076;-81
2021/12/21 00:51:36;;;;;;;17.88;8.00;;;;;;;;;;5025082;28;20108;-81
2021/12/21 00:54:02;;;;;;;18.47;6.90;;;;;;;;;;5031863;28;20108;-80
2021/12/21 00:56:27;;;;;;;15.13;6.90;;;;;;;;;;5026729;28;20018;-79
2021/12/21 00:58:52;;;;;;;16.17;6.73;;;;;;;;;;5023328;28;20033;-78
2021/12/21 01:01:17;;;;;;;12.60;7.10;;;;;;;;;;5028473;28;20473;-80
2021/12/21 01:03:47;;;;;;;18.17;7.30;;;;;;;;;;5025333;28;20017;-79
2021/12/21 01:06:59;;;;;;;15.60;7.10;;;;;;;;;;5024722;28;20555;-80
2021/12/21 01:09:40;;;;;;;12.50;6.53;;;;;;;;;;5022753;28;20115;-80
2021/12/21 01:12:07;;;;;;;15.73;6.67;;;;;;;;;;5027590;28;20041;-77
2021/12/21 01:17:26;;;;;;;15.93;7.33;;;;;;;;;;5026028;28;20099;-78
2021/12/21 01:20:03;;;;;;;13.50;6.07;;;;;;;;;;5028336;28;20350;-77
2021/12/21 01:25:27;;;;;;;14.60;6.13;;;;;;;;;;5033441;28;20025;-78
2021/12/21 01:28:00;;;;;;;16.33;6.70;;;;;;;;;;5021185;28;20026;-79
2021/12/21 01:33:20;;;;;;;12.13;6.30;;;;;;;;;;5027937;28;20028;-77
2021/12/21 01:35:49;;;;;;;12.37;6.67;;;;;;;;;;5027959;28;20086;-77
2021/12/21 01:43:25;;;;;;;15.93;6.67;;;;;;;;;;5023028;28;20358;-79
2021/12/21 01:51:18;;;;;;;15.43;7.03;;;;;;;;;;5026103;28;20525;-78
2021/12/21 01:53:43;;;;;;;13.97;6.37;;;;;;;;;;5027066;28;20096;-78
2021/12/21 01:56:09;;;;;;;14.27;6.53;;;;;;;;;;5027756;28;20021;-78
2021/12/21 01:58:37;;;;;;;12.67;6.57;;;;;;;;;;5031976;28;20017;-78
2021/12/21 02:01:03;;;;;;;13.10;6.37;;;;;;;;;;5028258;28;20029;-76
2021/12/21 02:03:28;;;;;;;13.23;6.13;;;;;;;;;;5027984;28;20052;-77
2021/12/21 02:05:53;;;;;;;13.67;6.03;;;;;;;;;;5030232;28;20073;-78
2021/12/21 02:08:18;;;;;;;16.17;6.60;;;;;;;;;;5028435;28;20037;-77
2021/12/21 02:10:44;;;;;;;12.67;6.90;;;;;;;;;;5027701;28;20151;-77
2021/12/21 02:13:09;;;;;;;13.47;6.67;;;;;;;;;;5030921;28;20049;-78
2021/12/21 02:15:34;;;;;;;13.87;7.33;;;;;;;;;;5031175;28;20025;-79
2021/12/21 02:28:33;;;;;;;12.50;7.60;;;;;;;;;;5031305;28;20025;-77
2021/12/21 02:30:58;;;;;;;15.30;8.20;;;;;;;;;;5025606;28;20087;-78
2021/12/21 02:33:26;;;;;;;15.60;7.83;;;;;;;;;;5030497;28;20108;-78
2021/12/21 02:35:51;;;;;;;15.73;7.80;;;;;;;;;;5030268;28;20025;-78
2021/12/21 02:38:16;;;;;;;17.57;8.83;;;;;;;;;;5027060;28;20053;-78
2021/12/21 02:40:42;;;;;;;18.73;9.20;;;;;;;;;;5025795;28;20025;-78
2021/12/21 02:43:13;;;;;;;19.50;8.70;;;;;;;;;;5027476;28;20021;-79
2021/12/21 02:45:39;;;;;;;21.50;9.07;;;;;;;;;;5026821;28;20032;-78
2021/12/21 02:48:04;;;;;;;17.77;9.03;;;;;;;;;;5030671;28;20072;-78
2021/12/21 02:50:30;;;;;;;16.27;9.37;;;;;;;;;;5030392;28;20041;-78
2021/12/21 02:52:55;;;;;;;19.33;9.37;;;;;;;;;;5024619;28;20395;-77
2021/12/21 02:55:20;;;;;;;21.80;9.57;;;;;;;;;;5028044;28;20090;-78
2021/12/21 02:57:45;;;;;;;23.30;11.03;;;;;;;;;;5029922;28;20539;-77
2021/12/21 03:00:11;;;;;;;26.73;12.27;;;;;;;;;;5022028;28;20037;-78
2021/12/21 03:02:36;;;;;;;35.00;14.33;;;;;;;;;;5030694;28;20431;-79
2021/12/21 03:05:02;;;;;;;35.17;14.07;;;;;;;;;;5030203;28;20030;-78
2021/12/21 03:10:00;;;;;;;36.17;13.87;;;;;;;;;;5021289;28;20091;-77
2021/12/21 03:14:51;;;;;;;33.63;14.60;;;;;;;;;;5030217;28;20021;-77
2021/12/21 03:17:17;;;;;;;40.47;15.50;;;;;;;;;;5030359;28;20031;-78
2021/12/21 03:19:42;;;;;;;41.07;17.33;;;;;;;;;;5027689;28;20543;-78
2021/12/21 03:22:08;;;;;;;40.90;17.40;;;;;;;;;;5027789;28;20025;-78
2021/12/21 03:24:34;;;;;;;51.43;17.40;;;;;;;;;;5029921;28;20072;-78
2021/12/21 03:26:59;;;;;;;37.70;15.67;;;;;;;;;;5030421;28;20025;-78
2021/12/21 03:29:25;;;;;;;38.30;17.20;;;;;;;;;;5023440;28;20118;-78
2021/12/21 03:31:50;;;;;;;60.43;19.80;;;;;;;;;;5029708;28;20483;-78
2021/12/21 03:34:15;;;;;;;49.87;18.43;;;;;;;;;;5029746;28;20578;-77
2021/12/21 03:36:41;;;;;;;36.87;18.27;;;;;;;;;;5023182;28;20025;-77
2021/12/21 03:39:09;;;;;;;51.37;19.53;;;;;;;;;;5025904;28;20036;-77
2021/12/21 03:41:35;;;;;;;42.50;18.53;;;;;;;;;;5026157;28;20029;-78
2021/12/21 03:44:02;;;;;;;47.43;19.83;;;;;;;;;;5021287;28;20308;-79
2021/12/21 03:46:28;;;;;;;51.30;21.10;;;;;;;;;;5028552;28;20032;-77
2021/12/21 03:48:54;;;;;;;53.87;21.53;;;;;;;;;;5023114;28;20043;-78
2021/12/21 03:51:19;;;;;;;51.73;19.87;;;;;;;;;;5030553;28;20021;-79
2021/12/21 03:53:45;;;;;;;43.97;19.70;;;;;;;;;;5028054;28;20044;-80
2021/12/21 03:56:34;;;;;;;46.27;20.50;;;;;;;;;;5024444;28;20021;-78
2021/12/21 03:58:59;;;;;;;49.85;19.80;;;;;;;;;;5019492;28;20018;-77
2021/12/21 04:01:25;;;;;;;48.37;19.17;;;;;;;;;;5028179;28;20036;-80
2021/12/21 04:03:50;;;;;;;41.70;18.43;;;;;;;;;;5023037;28;20029;-78
2021/12/21 04:06:15;;;;;;;41.83;19.13;;;;;;;;;;5025535;28;20057;-77
2021/12/21 04:08:40;;;;;;;41.80;18.73;;;;;;;;;;5020962;28;20021;-79
2021/12/21 04:11:06;;;;;;;43.33;19.23;;;;;;;;;;5028457;28;20374;-78
2021/12/21 04:13:31;;;;;;;42.73;18.93;;;;;;;;;;5022379;28;20506;-80
2021/12/21 04:15:59;;;;;;;39.37;18.10;;;;;;;;;;5017421;28;20038;-77
2021/12/21 04:18:25;;;;;;;37.73;17.40;;;;;;;;;;5028231;28;20342;-78
2021/12/21 04:20:50;;;;;;;40.10;17.47;;;;;;;;;;5028802;28;20029;-79
2021/12/21 04:23:15;;;;;;;38.00;18.23;;;;;;;;;;5028591;28;20041;-78
2021/12/21 04:25:41;;;;;;;38.43;17.50;;;;;;;;;;5025749;28;20025;-79
2021/12/21 04:28:06;;;;;;;35.47;16.73;;;;;;;;;;5028924;28;20026;-78
2021/12/21 04:30:31;;;;;;;34.70;16.73;;;;;;;;;;5032003;28;20500;-80
2021/12/21 04:32:56;;;;;;;40.83;18.03;;;;;;;;;;5022976;28;20021;-80
2021/12/21 04:35:22;;;;;;;40.07;18.07;;;;;;;;;;5028902;28;20040;-81
2021/12/21 04:37:53;;;;;;;41.80;19.63;;;;;;;;;;5017977;28;20022;-81
2021/12/21 04:40:20;;;;;;;38.40;18.60;;;;;;;;;;5024196;28;20564;-79
2021/12/21 04:42:46;;;;;;;36.20;17.93;;;;;;;;;;5027608;28;20030;-80
2021/12/21 04:45:11;;;;;;;42.70;18.23;;;;;;;;;;5020291;28;20026;-78
2021/12/21 04:47:36;;;;;;;34.53;16.33;;;;;;;;;;5026507;28;20529;-79
2021/12/21 04:50:02;;;;;;;38.83;17.57;;;;;;;;;;5026771;28;20124;-80
2021/12/21 04:52:27;;;;;;;35.47;16.77;;;;;;;;;;5031525;28;20036;-80
2021/12/21 04:54:52;;;;;;;36.07;18.17;;;;;;;;;;5022915;28;20025;-79
2021/12/21 04:57:18;;;;;;;37.80;18.50;;;;;;;;;;5020500;28;20036;-79
2021/12/21 04:59:43;;;;;;;36.23;17.40;;;;;;;;;;5027093;28;20053;-79
2021/12/21 05:02:08;;;;;;;32.03;16.90;;;;;;;;;;5023723;28;20021;-78
2021/12/21 05:04:35;;;;;;;38.20;16.53;;;;;;;;;;5023557;28;20025;-76
2021/12/21 05:07:00;;;;;;;33.13;17.40;;;;;;;;;;5021126;28;20131;-77
2021/12/21 05:09:28;;;;;;;30.00;15.43;;;;;;;;;;5027066;28;20425;-80
2021/12/21 05:12:01;;;;;;;31.53;15.70;;;;;;;;;;5022370;28;20064;-77
2021/12/21 05:14:27;;;;;;;30.53;16.10;;;;;;;;;;5029256;28;20030;-77
2021/12/21 05:16:52;;;;;;;27.00;14.23;;;;;;;;;;5024732;28;20029;-79
2021/12/21 05:19:17;;;;;;;31.57;15.20;;;;;;;;;;5024050;28;20362;-79
2021/12/21 05:21:43;;;;;;;29.80;14.40;;;;;;;;;;5026140;28;20883;-77
2021/12/21 05:24:08;;;;;;;24.97;13.83;;;;;;;;;;5028034;28;20037;-79
2021/12/21 05:26:33;;;;;;;26.97;14.47;;;;;;;;;;5028353;28;20033;-78
2021/12/21 05:28:58;;;;;;;25.50;13.20;;;;;;;;;;5027822;28;20648;-78
2021/12/21 05:31:24;;;;;;;18.87;12.10;;;;;;;;;;5033519;28;20037;-78
2021/12/21 05:33:52;;;;;;;25.17;13.80;;;;;;;;;;5033578;28;20079;-76
2021/12/21 05:36:19;;;;;;;24.13;13.83;;;;;;;;;;5032315;28;20037;-78
2021/12/21 05:38:49;;;;;;;26.67;13.67;;;;;;;;;;5032683;28;20033;-77
2021/12/21 05:41:22;;;;;;;;;;;;;;;;;;5030121;28;20112;-75
2021/12/21 05:43:47;;;;;;;24.17;12.77;;;;;;;;;;5032743;28;19915;-76
2021/12/21 05:46:13;;;;;;;28.27;13.97;;;;;;;;;;5025011;28;20105;-77
2021/12/21 05:48:38;;;;;;;27.57;13.03;;;;;;;;;;5031920;28;20048;-78
2021/12/21 05:51:03;;;;;;;23.93;13.30;;;;;;;;;;5031433;28;20124;-75
2021/12/21 05:53:28;;;;;;;24.50;13.23;;;;;;;;;;5025540;28;20028;-78
2021/12/21 05:55:53;;;;;;;25.37;12.93;;;;;;;;;;5029293;28;20426;-78
2021/12/21 05:58:18;;;;;;;24.73;12.83;;;;;;;;;;5023002;28;20021;-77
2021/12/21 06:00:44;;;;;;;22.73;12.20;;;;;;;;;;5031086;28;20022;-76
2021/12/21 06:03:09;;;;;;;23.07;12.23;;;;;;;;;;5027773;28;20116;-78
2021/12/21 06:05:34;;;;;;;22.67;12.23;;;;;;;;;;5030747;28;20153;-77
2021/12/21 06:07:59;;;;;;;26.07;12.13;;;;;;;;;;5032338;28;20053;-76
2021/12/21 06:10:30;;;;;;;26.40;11.77;;;;;;;;;;5030924;28;20042;-76
2021/12/21 06:26:03;;;;;;;20.53;11.63;;;;;;;;;;5022201;28;20056;-77
2021/12/21 06:28:29;;;;;;;22.37;12.10;;;;;;;;;;5024647;28;20366;-78
2021/12/21 06:30:54;;;;;;;22.67;11.70;;;;;;;;;;5025145;28;20044;-78
2021/12/21 06:33:20;;;;;;;21.47;11.33;;;;;;;;;;5028578;28;20026;-79
2021/12/21 06:35:45;;;;;;;19.87;12.03;;;;;;;;;;5030194;28;20025;-77
2021/12/21 06:38:11;;;;;;;25.90;12.20;;;;;;;;;;5031453;28;20026;-77
2021/12/21 06:40:36;;;;;;;21.93;11.50;;;;;;;;;;5029486;28;20029;-78
2021/12/21 06:43:03;;;;;;;21.27;12.07;;;;;;;;;;5029967;28;20033;-78
2021/12/21 06:53:44;;;;;;;25.70;12.40;;;;;;;;;;5030641;28;20427;-78
2021/12/21 06:56:10;;;;;;;23.13;12.73;;;;;;;;;;5030748;28;20033;-77
2021/12/21 06:58:35;;;;;;;22.20;12.63;;;;;;;;;;5031061;28;20389;-76
2021/12/21 07:01:01;;;;;;;20.77;12.17;;;;;;;;;;5027618;28;20024;-78
2021/12/21 07:03:27;;;;;;;24.93;11.90;;;;;;;;;;5030524;28;20044;-78
2021/12/21 07:05:52;;;;;;;23.40;12.10;;;;;;;;;;5030752;28;20044;-77
2021/12/21 07:08:22;;;;;;;23.67;12.93;;;;;;;;;;5023890;28;20405;-77
2021/12/21 07:10:55;;;;;;;26.30;12.93;;;;;;;;;;5021799;28;20121;-76
2021/12/21 07:18:48;;;;;;;37.23;18.13;;;;;;;;;;5026313;28;20029;-77
2021/12/21 07:21:13;;;;;;;34.70;16.17;;;;;;;;;;5030803;28;20461;-76
2021/12/21 07:23:39;;;;;;;41.03;17.37;;;;;;;;;;5020900;28;20082;-76
2021/12/21 07:26:04;;;;;;;40.03;17.77;;;;;;;;;;5027931;28;20080;-68
2021/12/21 07:28:29;;;;;;;37.87;17.80;;;;;;;;;;5025377;28;20024;-73
2021/12/21 07:30:56;;;;;;;34.13;17.17;;;;;;;;;;5028687;28;20030;-72
2021/12/21 07:33:21;;;;;;;41.10;18.77;;;;;;;;;;5029345;28;20036;-72
2021/12/21 07:35:47;;;;;;;37.30;17.93;;;;;;;;;;5026293;28;20465;-71
2021/12/21 07:38:13;;;;;;;39.47;18.27;;;;;;;;;;5029416;28;20493;-71
2021/12/21 07:40:38;;;;;;;44.97;19.87;;;;;;;;;;5026084;28;20122;-72
2021/12/21 07:43:03;;;;;;;42.93;18.57;;;;;;;;;;5027458;28;20052;-71
2021/12/21 07:45:29;;;;;;;42.13;19.53;;;;;;;;;;5030046;28;20021;-72
2021/12/21 07:47:54;;;;;;;45.20;19.90;;;;;;;;;;5028428;28;20032;-71
2021/12/21 07:50:19;;;;;;;45.80;21.43;;;;;;;;;;5021028;28;20037;-72
2021/12/21 07:52:45;;;;;;;48.77;21.23;;;;;;;;;;5026861;28;20051;-72
2021/12/21 07:55:10;;;;;;;46.90;20.70;;;;;;;;;;5025132;28;20516;-72
2021/12/21 07:57:37;;;;;;;46.97;21.73;;;;;;;;;;5028800;28;20067;-72
2021/12/21 08:00:03;;;;;;;48.37;21.63;;;;;;;;;;5023085;28;20113;-72
2021/12/21 08:02:29;;;;;;;52.53;22.67;;;;;;;;;;5025278;28;20028;-73
2021/12/21 08:04:54;;;;;;;49.93;21.63;;;;;;;;;;5028075;28;20125;-72
2021/12/21 08:07:24;;;;;;;49.37;21.47;;;;;;;;;;5028975;28;20103;-71
2021/12/21 08:09:52;;;;;;;43.97;22.38;;;;;;;;;;5026004;28;20041;-71
2021/12/21 08:12:18;;;;;;;43.70;19.63;;;;;;;;;;5028796;28;20025;-71
2021/12/21 08:14:45;;;;;;;44.57;19.60;;;;;;;;;;5025646;28;20029;-71
2021/12/21 08:17:10;;;;;;;43.97;19.93;;;;;;;;;;5026757;28;20084;-71
2021/12/21 08:19:35;;;;;;;46.20;20.63;;;;;;;;;;5026205;28;20490;-72
2021/12/21 08:22:00;;;;;;;40.27;20.57;;;;;;;;;;5028581;28;20036;-65
2021/12/21 08:24:26;;;;;;;39.57;19.50;;;;;;;;;;5028978;28;20483;-65
2021/12/21 08:26:51;;;;;;;41.83;20.00;;;;;;;;;;5027361;28;20029;-63
2021/12/21 08:29:16;;;;;;;49.20;20.97;;;;;;;;;;5029193;28;20400;-65
2021/12/21 08:31:42;;;;;;;42.60;18.67;;;;;;;;;;5029213;28;20022;-66
2021/12/21 08:34:07;;;;;;;43.40;20.23;;;;;;;;;;5029578;28;20412;-66
2021/12/21 08:36:32;;;;;;;45.53;20.47;;;;;;;;;;5025090;28;20117;-64
2021/12/21 08:38:57;;;;;;;41.67;19.77;;;;;;;;;;5028248;28;20025;-65
2021/12/21 08:41:23;;;;;;;42.50;20.87;;;;;;;;;;5028851;28;20029;-65
2021/12/21 08:43:51;;;;;;;43.83;19.97;;;;;;;;;;5028832;28;20082;-64
2021/12/21 08:46:16;;;;;;;46.53;21.27;;;;;;;;;;5029056;28;20028;-65
2021/12/21 08:48:42;;;;;;;51.10;22.97;;;;;;;;;;5026414;28;20104;-66
2021/12/21 08:51:07;;;;;;;43.80;20.97;;;;;;;;;;5030779;28;20033;-65
2021/12/21 08:53:32;;;;;;;44.63;20.60;;;;;;;;;;5028865;28;20109;-65
2021/12/21 08:55:58;;;;;;;43.23;20.33;;;;;;;;;;5028337;28;20029;-65
2021/12/21 08:58:23;;;;;;;49.47;21.43;;;;;;;;;;5027327;28;20052;-64
2021/12/21 09:00:49;;;;;;;43.87;22.27;;;;;;;;;;5028675;28;20101;-65
2021/12/21 09:03:14;;;;;;;40.80;20.67;;;;;;;;;;5028568;28;20486;-66
2021/12/21 09:05:41;;;;;;;42.47;20.80;;;;;;;;;;5030983;28;20087;-66
2021/12/21 09:08:07;;;;;;;41.57;18.93;;;;;;;;;;5030633;28;20048;-65
2021/12/21 09:10:33;;;;;;;40.03;19.40;;;;;;;;;;5028579;28;20030;-65
2021/12/21 09:12:58;;;;;;;43.33;19.93;;;;;;;;;;5032816;28;20010;-64
2021/12/21 09:15:24;;;;;;;45.00;21.13;;;;;;;;;;5032429;28;20036;-66
2021/12/21 09:17:50;;;;;;;37.87;19.67;;;;;;;;;;5032589;28;20032;-65
2021/12/21 09:20:16;;;;;;;38.50;18.70;;;;;;;;;;5027743;28;20033;-67
2021/12/21 09:22:41;;;;;;;39.50;20.30;;;;;;;;;;5040723;28;20017;-65
2021/12/21 09:25:07;;;;;;;40.30;18.33;;;;;;;;;;5032002;28;20048;-65
2021/12/21 09:27:33;;;;;;;36.67;17.97;;;;;;;;;;5032157;28;20025;-64
2021/12/21 09:29:58;;;;;;;39.00;19.53;;;;;;;;;;5030399;28;20469;-64
2021/12/21 09:32:24;;;;;;;40.10;19.43;;;;;;;;;;5032268;28;20036;-64
2021/12/21 09:34:49;;;;;;;41.00;19.00;;;;;;;;;;5032024;28;20029;-64
2021/12/21 09:37:17;;;;;;;36.43;18.90;;;;;;;;;;5032165;28;20026;-65
2021/12/21 09:39:49;;;;;;;40.67;18.43;;;;;;;;;;5032204;28;20022;-66
2021/12/21 09:42:17;;;;;;;36.57;19.03;;;;;;;;;;5025343;28;20632;-64
2021/12/21 09:44:42;;;;;;;37.45;17.80;;;;;;;;;;5024113;28;20573;-64
2021/12/21 09:47:10;;;;;;;32.40;16.83;;;;;;;;;;5031438;28;20065;-64
2021/12/21 09:49:35;;;;;;;33.80;17.20;;;;;;;;;;5031886;28;20029;-64
2021/12/21 09:52:01;;;;;;;31.77;17.48;;;;;;;;;;5032545;28;20025;-64
2021/12/21 09:54:26;;;;;;;37.37;18.57;;;;;;;;;;5031963;28;20036;-65
2021/12/21 09:56:51;;;;;;;31.63;16.83;;;;;;;;;;5031901;28;20105;-63
2021/12/21 09:59:17;;;;;;;32.33;17.17;;;;;;;;;;5031858;28;20026;-65
2021/12/21 10:01:42;;;;;;;32.87;16.83;;;;;;;;;;5026914;28;20022;-64
2021/12/21 10:04:07;;;;;;;32.90;16.80;;;;;;;;;;5027783;28;20457;-64
2021/12/21 10:06:41;;;;;;;32.73;17.63;;;;;;;;;;5031270;28;20083;-64
2021/12/21 10:09:07;;;;;;;32.43;17.10;;;;;;;;;;5031119;28;20021;-65
2021/12/21 10:11:40;;;;;;;30.57;16.13;;;;;;;;;;5031690;28;20033;-64
2021/12/21 10:14:06;;;;;;;36.00;17.43;;;;;;;;;;5030993;28;20029;-65
2021/12/21 10:16:31;;;;;;;24.60;15.20;;;;;;;;;;5031255;28;20499;-64
2021/12/21 10:18:56;;;;;;;27.13;15.43;;;;;;;;;;5031608;28;20082;-64
2021/12/21 10:21:21;;;;;;;29.47;16.23;;;;;;;;;;5030919;28;20041;-65
2021/12/21 10:23:48;;;;;;;27.97;16.80;;;;;;;;;;5030614;28;20029;-64
2021/12/21 10:26:28;;;;;;;30.13;15.43;;;;;;;;;;5030916;28;20032;-65
2021/12/21 10:29:00;;;;;;;28.03;15.47;;;;;;;;;;5031067;28;20055;-64
2021/12/21 10:31:29;;;;;;;25.88;14.93;;;;;;;;;;5030911;28;20133;-64
2021/12/21 10:33:56;;;;;;;27.17;14.43;;;;;;;;;;5029016;28;20029;-64
2021/12/21 10:36:23;;;;;;;27.27;14.67;;;;;;;;;;5030934;28;20655;-66
2021/12/21 10:38:54;;;;;;;29.30;14.30;;;;;;;;;;5030875;28;20053;-63
2021/12/21 10:41:32;;;;;;;26.73;14.97;;;;;;;;;;5030928;28;20025;-64
2021/12/21 10:43:58;;;;;;;26.23;13.87;;;;;;;;;;5023823;28;20104;-64
2021/12/21 10:46:25;;;;;;;24.15;13.40;;;;;;;;;;5030491;28;20202;-64
2021/12/21 10:48:50;;;;;;;24.25;13.50;;;;;;;;;;5030958;28;20017;-64
2021/12/21 10:51:16;;;;;;;23.05;12.60;;;;;;;;;;5033187;28;20022;-65
2021/12/21 10:53:45;;;;;;;23.90;12.52;;;;;;;;;;5030885;28;20024;-64
2021/12/21 10:56:10;;;;;;;22.13;12.10;;;;;;;;;;5031204;28;20718;-64
2021/12/21 10:58:37;;;;;;;24.37;12.93;;;;;;;;;;5030316;28;20121;-64
2021/12/21 11:01:03;;;;;;;19.30;12.40;;;;;;;;;;5030172;28;20026;-63
2021/12/21 11:03:38;;;;;;;22.15;12.40;;;;;;;;;;5030452;28;20127;-64
2021/12/21 11:06:12;;;;;;;22.00;12.25;;;;;;;;;;5029086;28;20046;-64
2021/12/21 11:08:39;;;;;;;22.40;11.73;;;;;;;;;;5024111;28;20373;-64
2021/12/21 11:11:10;;;;;;;20.73;12.07;;;;;;;;;;5029967;28;20578;-64
2021/12/21 11:13:35;;;;;;;20.13;12.43;;;;;;;;;;5030353;28;20523;-64
2021/12/21 11:16:04;;;;;;;23.88;12.93;;;;;;;;;;5029420;28;20026;-65
2021/12/21 11:18:29;;;;;;;20.30;11.90;;;;;;;;;;5029901;28;20025;-65
2021/12/21 11:20:55;;;;;;;22.73;13.17;;;;;;;;;;5036064;28;20029;-64
2021/12/21 11:23:22;;;;;;;22.47;13.40;;;;;;;;;;5029898;28;20029;-64
2021/12/21 11:25:49;;;;;;;23.75;13.35;;;;;;;;;;5023506;28;20104;-65
2021/12/21 11:28:15;;;;;;;25.27;12.63;;;;;;;;;;5023471;28;20081;-64
2021/12/21 11:30:41;;;;;;;23.87;14.23;;;;;;;;;;5030036;28;20036;-64
2021/12/21 11:33:07;;;;;;;23.70;13.67;;;;;;;;;;5029916;28;20104;-64
2021/12/21 11:38:00;;;;;;;27.17;12.80;;;;;;;;;;5027850;28;20121;-64
2021/12/21 11:40:29;;;;;;;23.50;12.87;;;;;;;;;;5029424;28;20032;-65
2021/12/21 11:43:01;;;;;;;23.47;13.60;;;;;;;;;;5029347;28;20493;-64
2021/12/21 11:45:28;;;;;;;26.00;13.07;;;;;;;;;;5029744;28;20025;-63
2021/12/21 11:48:02;;;;;;;22.67;13.13;;;;;;;;;;5029081;28;20021;-63
2021/12/21 11:50:28;;;;;;;27.13;14.37;;;;;;;;;;5025543;28;20025;-63
2021/12/21 11:52:55;;;;;;;26.73;14.60;;;;;;;;;;5022834;28;20069;-65
2021/12/21 11:55:23;;;;;;;28.00;14.95;;;;;;;;;;5029382;28;20373;-65
2021/12/21 11:57:50;;;;;;;26.83;14.60;;;;;;;;;;5029553;28;20021;-65
2021/12/21 12:00:17;;;;;;;23.33;12.63;;;;;;;;;;5029084;28;20017;-65
2021/12/21 12:02:43;;;;;;;23.98;14.25;;;;;;;;;;5029527;28;20477;-66
2021/12/21 12:05:17;;;;;;;24.23;13.25;;;;;;;;;;5033640;28;20060;-65
2021/12/21 12:07:42;;;;;;;20.63;12.75;;;;;;;;;;5022503;28;20063;-64
2021/12/21 12:10:09;;;;;;;25.98;13.38;;;;;;;;;;5028281;28;20041;-64
2021/12/21 12:12:34;;;;;;;24.02;12.70;;;;;;;;;;5008736;28;20026;-65
2021/12/21 12:15:01;;;;;;;22.75;11.63;;;;;;;;;;5020359;28;20025;-64
2021/12/21 12:17:27;;;;;;;19.83;11.50;;;;;;;;;;5029033;28;20045;-64
2021/12/21 12:19:57;;;;;;;20.33;11.52;;;;;;;;;;5027773;28;20470;-63
2021/12/21 12:22:39;;;;;;;19.10;11.03;;;;;;;;;;5034264;28;20370;-64
2021/12/21 12:25:16;;;;;;;20.42;12.18;;;;;;;;;;5028578;28;20029;-64
2021/12/21 12:27:43;;;;;;;22.55;12.23;;;;;;;;;;5028862;28;20032;-64
2021/12/21 12:30:10;;;;;;;22.65;11.35;;;;;;;;;;5033933;28;20034;-63
2021/12/21 12:32:40;;;;;;;24.17;12.40;;;;;;;;;;5026199;28;20029;-64
2021/12/21 12:35:07;;;;;;;18.70;11.63;;;;;;;;;;5028659;28;20493;-63
2021/12/21 12:37:32;;;;;;;22.02;13.07;;;;;;;;;;5028590;28;20519;-64
2021/12/21 12:40:05;;;;;;;21.90;11.95;;;;;;;;;;5026318;28;20025;-64
2021/12/21 12:42:32;;;;;;;27.05;13.45;;;;;;;;;;5020651;28;20124;-63
2021/12/21 12:45:09;;;;;;;24.63;12.40;;;;;;;;;;5027970;28;20029;-65
2021/12/21 12:47:35;;;;;;;19.90;11.45;;;;;;;;;;5028756;28;20391;-65
2021/12/21 12:50:01;;;;;;;20.10;11.23;;;;;;;;;;5028511;28;20117;-63
2021/12/21 12:52:31;;;;;;;20.35;10.88;;;;;;;;;;5025813;28;20109;-64
2021/12/21 12:55:04;;;;;;;17.27;10.48;;;;;;;;;;5028410;28;20021;-64
2021/12/21 12:57:31;;;;;;;17.20;10.45;;;;;;;;;;5028288;28;20017;-64
2021/12/21 13:00:07;;;;;;;17.52;9.85;;;;;;;;;;5028210;28;20021;-64
2021/12/21 13:02:32;;;;;;;19.35;10.75;;;;;;;;;;5027560;28;20075;-64
2021/12/21 13:04:58;;;;;;;18.05;10.07;;;;;;;;;;5028127;28;20014;-65
2021/12/21 13:07:24;;;;;;;20.02;9.98;;;;;;;;;;5028110;28;20081;-65
2021/12/21 13:09:49;;;;;;;19.75;11.07;;;;;;;;;;5028154;28;20139;-64
2021/12/21 13:12:15;;;;;;;16.80;9.70;;;;;;;;;;5027634;28;20021;-64
2021/12/21 13:14:40;;;;;;;19.23;9.60;;;;;;;;;;5023091;28;20048;-64
2021/12/21 13:17:05;;;;;;;20.73;11.13;;;;;;;;;;5028419;28;20018;-64
2021/12/21 13:19:32;;;;;;;22.40;11.32;;;;;;;;;;5028259;28;20407;-64
2021/12/21 13:22:01;;;;;;;20.00;11.00;;;;;;;;;;5033511;28;20014;-64
2021/12/21 13:24:36;;;;;;;20.85;10.88;;;;;;;;;;5026118;28;20030;-64
2021/12/21 13:27:08;;;;;;;21.40;11.85;;;;;;;;;;5028161;28;20112;-65
2021/12/21 13:29:35;;;;;;;20.05;10.50;;;;;;;;;;5028236;28;20044;-66
2021/12/21 13:32:01;;;;;;;19.85;11.23;;;;;;;;;;5028357;28;20017;-65
2021/12/21 13:34:27;;;;;;;22.95;11.20;;;;;;;;;;5026511;28;20707;-65
2021/12/21 13:36:57;;;;;;;17.17;9.63;;;;;;;;;;5030024;28;20040;-64
2021/12/21 13:39:22;;;;;;;22.23;11.68;;;;;;;;;;5026369;28;20100;-65
2021/12/21 13:41:52;;;;;;;26.05;12.20;;;;;;;;;;5028355;28;20469;-64
2021/12/21 13:44:29;;;;;;;24.70;11.30;;;;;;;;;;5028518;28;20048;-63
2021/12/21 13:46:56;;;;;;;21.15;11.38;;;;;;;;;;5022436;28;20025;-65
2021/12/21 13:49:21;;;;;;;23.42;11.80;;;;;;;;;;5021333;28;20560;-65
2021/12/21 13:51:50;;;;;;;24.30;11.70;;;;;;;;;;5031862;28;20153;-65
2021/12/21 13:54:17;;;;;;;22.95;12.02;;;;;;;;;;5031329;28;20501;-64
2021/12/21 13:56:42;;;;;;;23.30;11.55;;;;;;;;;;5030232;28;20017;-65
2021/12/21 13:59:11;;;;;;;21.63;11.07;;;;;;;;;;5031605;28;20035;-65
2021/12/21 14:01:36;;;;;;;21.63;12.20;;;;;;;;;;5032081;28;20029;-64
2021/12/21 14:04:07;;;;;;;20.65;11.00;;;;;;;;;;5031186;28;20028;-65
2021/12/21 14:06:33;;;;;;;20.52;11.27;;;;;;;;;;5029306;28;20135;-65
2021/12/21 14:08:59;;;;;;;18.55;10.55;;;;;;;;;;5029362;28;20017;-65
2021/12/21 14:11:27;;;;;;;24.17;11.77;;;;;;;;;;5031501;28;20013;-64
2021/12/21 14:13:53;;;;;;;20.42;10.75;;;;;;;;;;5031409;28;20036;-65
2021/12/21 14:16:19;;;;;;;19.58;11.25;;;;;;;;;;5028252;28;20013;-65
2021/12/21 14:18:46;;;;;;;25.35;12.57;;;;;;;;;;5031389;28;20039;-65
2021/12/21 14:21:16;;;;;;;18.98;11.63;;;;;;;;;;5036542;28;20025;-65
2021/12/21 14:23:43;;;;;;;20.77;12.27;;;;;;;;;;5031297;28;20149;-65
2021/12/21 14:26:09;;;;;;;20.98;12.32;;;;;;;;;;5029055;28;20072;-65
2021/12/21 14:28:43;;;;;;;21.55;12.10;;;;;;;;;;5023169;28;20041;-65
2021/12/21 14:31:09;;;;;;;19.95;11.13;;;;;;;;;;5016845;28;20037;-65
2021/12/21 14:33:47;;;;;;;19.20;10.57;;;;;;;;;;5024295;28;20436;-65
2021/12/21 14:36:15;;;;;;;19.38;11.50;;;;;;;;;;5017296;28;20101;-65
2021/12/21 14:38:52;;;;;;;22.40;12.43;;;;;;;;;;5021902;28;20026;-65
2021/12/21 14:41:18;;;;;;;24.45;11.93;;;;;;;;;;5031169;28;20052;-65
2021/12/21 14:43:44;;;;;;;20.88;11.52;;;;;;;;;;5030690;28;20040;-65
2021/12/21 14:46:16;;;;;;;23.23;12.50;;;;;;;;;;5030005;28;20022;-64
2021/12/21 14:48:47;;;;;;;20.85;12.00;;;;;;;;;;5026447;28;20036;-64
2021/12/21 14:51:13;;;;;;;22.25;12.45;;;;;;;;;;5021706;28;20034;-63
2021/12/21 14:53:47;;;;;;;23.17;11.88;;;;;;;;;;5013227;28;20013;-64
2021/12/21 14:56:25;;;;;;;18.80;11.30;;;;;;;;;;5018116;28;20026;-64
2021/12/21 14:58:58;;;;;;;22.23;12.40;;;;;;;;;;5018183;28;20030;-64
2021/12/21 15:01:23;;;;;;;24.35;12.82;;;;;;;;;;5015174;28;20033;-64
2021/12/21 15:03:48;;;;;;;26.58;13.13;;;;;;;;;;5018088;28;20358;-64
2021/12/21 15:06:13;;;;;;;26.10;13.13;;;;;;;;;;5015663;28;20053;-64
2021/12/21 15:08:38;;;;;;;32.13;14.07;;;;;;;;;;5024292;28;20036;-63
2021/12/21 15:11:04;;;;;;;29.05;13.88;;;;;;;;;;5030039;28;20358;-64
2021/12/21 15:13:29;;;;;;;27.13;14.05;;;;;;;;;;5028026;28;20137;-63
2021/12/21 15:15:54;;;;;;;28.17;14.52;;;;;;;;;;5028351;28;20076;-64
2021/12/21 15:18:20;;;;;;;30.10;16.10;;;;;;;;;;5030323;28;20525;-64
2021/12/21 15:20:45;;;;;;;31.95;15.68;;;;;;;;;;5029171;28;20117;-64
2021/12/21 15:23:11;;;;;;;30.93;16.33;;;;;;;;;;5035570;28;20017;-64
2021/12/21 15:25:37;;;;;;;30.98;16.80;;;;;;;;;;5029852;28;20017;-65